sensor_id;sensor_type;location;lat;lon;timestamp;P1;durP1;ratioP1;P2;durP2;ratioP2
18752;SDS011;9505;50.882;5.350;2023-08-17T00:02:11;342.90;;;319.17;;
18752;SDS011;9505;50.882;5.350;2023-08-17T00:04:38;341.65;;;317.95;;
18752;SDS011;9505;50.882;5.350;2023-08-17T00:07:04;358.13;;;334.25;;
18752;SDS011;9505;50.882;5.350;2023-08-17T00:09:30;359.42;;;336.17;;
18752;SDS011;9505;50.882;5.350;2023-08-17T00:11:55;350.88;;;328.30;;
18752;SDS011;9505;50.882;5.350;2023-08-17T00:14:21;361.17;;;337.58;;
18752;SDS011;9505;50.882;5.350;2023-08-17T00:16:48;359.05;;;335.85;;
18752;SDS011;9505;50.882;5.350;2023-08-17T00:19:14;324.13;;;303.55;;
18752;SDS011;9505;50.882;5.350;2023-08-17T00:21:40;340.00;;;318.33;;
18752;SDS011;9505;50.882;5.350;2023-08-17T00:24:06;315.02;;;295.05;;
18752;SDS011;9505;50.882;5.350;2023-08-17T00:26:31;338.42;;;317.92;;
18752;SDS011;9505;50.882;5.350;2023-08-17T00:28:57;335.73;;;314.70;;
18752;SDS011;9505;50.882;5.350;2023-08-17T00:31:23;357.70;;;334.42;;
18752;SDS011;9505;50.882;5.350;2023-08-17T00:33:48;350.38;;;328.00;;
18752;SDS011;9505;50.882;5.350;2023-08-17T00:36:14;338.08;;;316.63;;
18752;SDS011;9505;50.882;5.350;2023-08-17T00:38:40;345.42;;;323.05;;
18752;SDS011;9505;50.882;5.350;2023-08-17T00:41:06;349.23;;;327.02;;
18752;SDS011;9505;50.882;5.350;2023-08-17T00:43:32;352.35;;;330.45;;
18752;SDS011;9505;50.882;5.350;2023-08-17T00:45:57;373.15;;;349.30;;
18752;SDS011;9505;50.882;5.350;2023-08-17T00:48:23;384.60;;;360.38;;
18752;SDS011;9505;50.882;5.350;2023-08-17T00:50:50;393.85;;;367.67;;
18752;SDS011;9505;50.882;5.350;2023-08-17T00:53:17;392.17;;;366.70;;
18752;SDS011;9505;50.882;5.350;2023-08-17T00:55:44;392.33;;;366.17;;
18752;SDS011;9505;50.882;5.350;2023-08-17T00:58:10;423.70;;;395.67;;
18752;SDS011;9505;50.882;5.350;2023-08-17T01:00:36;440.95;;;410.52;;
18752;SDS011;9505;50.882;5.350;2023-08-17T01:03:02;472.00;;;437.58;;
18752;SDS011;9505;50.882;5.350;2023-08-17T01:05:28;460.63;;;428.05;;
18752;SDS011;9505;50.882;5.350;2023-08-17T01:07:56;433.10;;;402.17;;
18752;SDS011;9505;50.882;5.350;2023-08-17T01:10:22;543.13;;;503.13;;
18752;SDS011;9505;50.882;5.350;2023-08-17T01:13:03;561.92;;;521.08;;
18752;SDS011;9505;50.882;5.350;2023-08-17T01:18:14;519.78;;;483.70;;
18752;SDS011;9505;50.882;5.350;2023-08-17T01:20:58;465.15;;;434.15;;
18752;SDS011;9505;50.882;5.350;2023-08-17T01:23:25;357.90;;;335.15;;
18752;SDS011;9505;50.882;5.350;2023-08-17T01:25:51;332.48;;;312.15;;
18752;SDS011;9505;50.882;5.350;2023-08-17T01:28:18;293.48;;;275.75;;
18752;SDS011;9505;50.882;5.350;2023-08-17T01:30:47;261.98;;;245.85;;
18752;SDS011;9505;50.882;5.350;2023-08-17T01:33:49;271.98;;;254.95;;
18752;SDS011;9505;50.882;5.350;2023-08-17T01:36:25;276.58;;;259.98;;
18752;SDS011;9505;50.882;5.350;2023-08-17T01:38:55;280.80;;;263.60;;
18752;SDS011;9505;50.882;5.350;2023-08-17T01:41:22;276.63;;;260.08;;
18752;SDS011;9505;50.882;5.350;2023-08-17T01:43:48;260.45;;;245.05;;
18752;SDS011;9505;50.882;5.350;2023-08-17T01:46:15;248.32;;;233.90;;
18752;SDS011;9505;50.882;5.350;2023-08-17T01:48:42;260.77;;;244.88;;
18752;SDS011;9505;50.882;5.350;2023-08-17T01:51:09;260.05;;;244.15;;
18752;SDS011;9505;50.882;5.350;2023-08-17T01:53:36;281.70;;;264.85;;
18752;SDS011;9505;50.882;5.350;2023-08-17T01:56:02;336.77;;;316.55;;
18752;SDS011;9505;50.882;5.350;2023-08-17T01:58:28;372.70;;;350.00;;
18752;SDS011;9505;50.882;5.350;2023-08-17T02:00:53;420.27;;;393.77;;
18752;SDS011;9505;50.882;5.350;2023-08-17T02:03:19;459.77;;;429.73;;
18752;SDS011;9505;50.882;5.350;2023-08-17T02:05:45;478.25;;;446.83;;
18752;SDS011;9505;50.882;5.350;2023-08-17T02:08:11;496.25;;;464.02;;
18752;SDS011;9505;50.882;5.350;2023-08-17T02:10:37;477.15;;;446.23;;
18752;SDS011;9505;50.882;5.350;2023-08-17T02:13:03;445.98;;;417.88;;
18752;SDS011;9505;50.882;5.350;2023-08-17T02:15:29;454.00;;;424.63;;
18752;SDS011;9505;50.882;5.350;2023-08-17T02:17:55;430.90;;;404.08;;
18752;SDS011;9505;50.882;5.350;2023-08-17T02:20:21;423.52;;;395.60;;
18752;SDS011;9505;50.882;5.350;2023-08-17T02:22:47;406.75;;;379.70;;
18752;SDS011;9505;50.882;5.350;2023-08-17T02:25:13;390.48;;;365.95;;
18752;SDS011;9505;50.882;5.350;2023-08-17T02:27:38;377.50;;;354.35;;
18752;SDS011;9505;50.882;5.350;2023-08-17T02:30:04;384.98;;;360.98;;
18752;SDS011;9505;50.882;5.350;2023-08-17T02:32:30;352.45;;;330.40;;
18752;SDS011;9505;50.882;5.350;2023-08-17T02:34:56;360.98;;;337.95;;
18752;SDS011;9505;50.882;5.350;2023-08-17T02:37:21;356.50;;;334.02;;
18752;SDS011;9505;50.882;5.350;2023-08-17T02:39:47;313.75;;;293.85;;
18752;SDS011;9505;50.882;5.350;2023-08-17T02:42:13;339.30;;;318.13;;
18752;SDS011;9505;50.882;5.350;2023-08-17T02:44:38;306.17;;;287.90;;
18752;SDS011;9505;50.882;5.350;2023-08-17T02:47:04;305.27;;;286.48;;
18752;SDS011;9505;50.882;5.350;2023-08-17T02:49:30;304.77;;;286.55;;
18752;SDS011;9505;50.882;5.350;2023-08-17T02:51:55;267.02;;;249.40;;
18752;SDS011;9505;50.882;5.350;2023-08-17T02:54:21;273.55;;;256.83;;
18752;SDS011;9505;50.882;5.350;2023-08-17T02:56:47;242.80;;;226.70;;
18752;SDS011;9505;50.882;5.350;2023-08-17T02:59:13;279.95;;;263.20;;
18752;SDS011;9505;50.882;5.350;2023-08-17T03:01:38;266.05;;;249.45;;
18752;SDS011;9505;50.882;5.350;2023-08-17T03:04:04;282.42;;;265.00;;
18752;SDS011;9505;50.882;5.350;2023-08-17T03:06:30;279.48;;;262.10;;
18752;SDS011;9505;50.882;5.350;2023-08-17T03:08:55;292.25;;;273.38;;
18752;SDS011;9505;50.882;5.350;2023-08-17T03:11:21;295.40;;;276.02;;
18752;SDS011;9505;50.882;5.350;2023-08-17T03:13:47;294.70;;;275.98;;
18752;SDS011;9505;50.882;5.350;2023-08-17T03:16:13;350.80;;;327.58;;
18752;SDS011;9505;50.882;5.350;2023-08-17T03:18:40;334.88;;;313.58;;
18752;SDS011;9505;50.882;5.350;2023-08-17T03:21:06;358.27;;;335.00;;
18752;SDS011;9505;50.882;5.350;2023-08-17T03:23:32;322.98;;;302.20;;
18752;SDS011;9505;50.882;5.350;2023-08-17T03:25:58;389.05;;;362.42;;
18752;SDS011;9505;50.882;5.350;2023-08-17T03:28:24;380.88;;;355.40;;
18752;SDS011;9505;50.882;5.350;2023-08-17T03:30:54;384.75;;;358.80;;
18752;SDS011;9505;50.882;5.350;2023-08-17T03:33:20;380.10;;;353.98;;
18752;SDS011;9505;50.882;5.350;2023-08-17T03:35:46;369.73;;;345.30;;
18752;SDS011;9505;50.882;5.350;2023-08-17T03:38:12;353.30;;;329.55;;
18752;SDS011;9505;50.882;5.350;2023-08-17T03:40:38;349.77;;;326.80;;
18752;SDS011;9505;50.882;5.350;2023-08-17T03:43:04;385.88;;;358.90;;
18752;SDS011;9505;50.882;5.350;2023-08-17T03:45:29;403.63;;;375.52;;
18752;SDS011;9505;50.882;5.350;2023-08-17T03:47:56;382.77;;;356.45;;
18752;SDS011;9505;50.882;5.350;2023-08-17T03:50:21;368.42;;;342.65;;
18752;SDS011;9505;50.882;5.350;2023-08-17T03:52:47;445.55;;;411.92;;
18752;SDS011;9505;50.882;5.350;2023-08-17T03:55:13;441.08;;;408.88;;
18752;SDS011;9505;50.882;5.350;2023-08-17T03:57:39;471.20;;;436.30;;
18752;SDS011;9505;50.882;5.350;2023-08-17T04:00:05;469.42;;;434.67;;
18752;SDS011;9505;50.882;5.350;2023-08-17T04:02:31;461.98;;;428.00;;
18752;SDS011;9505;50.882;5.350;2023-08-17T04:04:57;480.17;;;444.63;;
18752;SDS011;9505;50.882;5.350;2023-08-17T04:07:22;528.15;;;488.48;;
18752;SDS011;9505;50.882;5.350;2023-08-17T04:09:48;546.83;;;504.58;;
18752;SDS011;9505;50.882;5.350;2023-08-17T04:12:14;589.38;;;542.50;;
18752;SDS011;9505;50.882;5.350;2023-08-17T04:14:40;659.17;;;607.65;;
18752;SDS011;9505;50.882;5.350;2023-08-17T04:17:05;646.22;;;594.10;;
18752;SDS011;9505;50.882;5.350;2023-08-17T04:19:31;648.25;;;596.85;;
18752;SDS011;9505;50.882;5.350;2023-08-17T04:21:57;615.28;;;564.55;;
18752;SDS011;9505;50.882;5.350;2023-08-17T04:24:23;654.78;;;602.75;;
18752;SDS011;9505;50.882;5.350;2023-08-17T04:26:49;642.33;;;591.17;;
18752;SDS011;9505;50.882;5.350;2023-08-17T04:29:15;642.97;;;592.03;;
18752;SDS011;9505;50.882;5.350;2023-08-17T04:31:40;636.13;;;585.95;;
18752;SDS011;9505;50.882;5.350;2023-08-17T04:34:06;610.30;;;562.25;;
18752;SDS011;9505;50.882;5.350;2023-08-17T04:36:32;597.58;;;550.50;;
18752;SDS011;9505;50.882;5.350;2023-08-17T04:38:57;595.97;;;548.33;;
18752;SDS011;9505;50.882;5.350;2023-08-17T04:41:23;588.03;;;540.85;;
18752;SDS011;9505;50.882;5.350;2023-08-17T04:43:49;597.63;;;549.83;;
18752;SDS011;9505;50.882;5.350;2023-08-17T04:46:14;593.85;;;547.38;;
18752;SDS011;9505;50.882;5.350;2023-08-17T04:48:40;664.08;;;611.55;;
18752;SDS011;9505;50.882;5.350;2023-08-17T04:51:06;636.17;;;584.63;;
18752;SDS011;9505;50.882;5.350;2023-08-17T04:53:31;652.42;;;600.35;;
18752;SDS011;9505;50.882;5.350;2023-08-17T04:55:58;631.17;;;580.25;;
18752;SDS011;9505;50.882;5.350;2023-08-17T04:58:24;638.03;;;587.10;;
18752;SDS011;9505;50.882;5.350;2023-08-17T05:00:49;620.97;;;571.42;;
18752;SDS011;9505;50.882;5.350;2023-08-17T05:03:16;669.20;;;615.92;;
18752;SDS011;9505;50.882;5.350;2023-08-17T05:05:41;630.83;;;581.03;;
18752;SDS011;9505;50.882;5.350;2023-08-17T05:08:07;610.45;;;561.30;;
18752;SDS011;9505;50.882;5.350;2023-08-17T05:10:33;564.58;;;520.70;;
18752;SDS011;9505;50.882;5.350;2023-08-17T05:12:59;519.55;;;479.27;;
18752;SDS011;9505;50.882;5.350;2023-08-17T05:15:24;490.75;;;453.17;;
18752;SDS011;9505;50.882;5.350;2023-08-17T05:17:50;478.15;;;442.83;;
18752;SDS011;9505;50.882;5.350;2023-08-17T05:20:16;394.17;;;362.77;;
18752;SDS011;9505;50.882;5.350;2023-08-17T05:22:42;401.88;;;367.85;;
18752;SDS011;9505;50.882;5.350;2023-08-17T05:25:07;383.92;;;354.67;;
18752;SDS011;9505;50.882;5.350;2023-08-17T05:27:33;432.45;;;400.58;;
18752;SDS011;9505;50.882;5.350;2023-08-17T05:29:59;416.27;;;383.25;;
18752;SDS011;9505;50.882;5.350;2023-08-17T05:32:24;379.13;;;351.10;;
18752;SDS011;9505;50.882;5.350;2023-08-17T05:34:50;329.88;;;305.77;;
18752;SDS011;9505;50.882;5.350;2023-08-17T05:37:16;294.85;;;274.77;;
18752;SDS011;9505;50.882;5.350;2023-08-17T05:39:41;220.65;;;204.68;;
18752;SDS011;9505;50.882;5.350;2023-08-17T05:42:07;215.82;;;200.25;;
18752;SDS011;9505;50.882;5.350;2023-08-17T05:44:34;233.85;;;216.45;;
18752;SDS011;9505;50.882;5.350;2023-08-17T05:47:00;139.25;;;129.15;;
18752;SDS011;9505;50.882;5.350;2023-08-17T05:49:26;135.82;;;126.13;;
18752;SDS011;9505;50.882;5.350;2023-08-17T05:51:51;130.60;;;120.85;;
18752;SDS011;9505;50.882;5.350;2023-08-17T05:54:17;111.13;;;102.75;;
18752;SDS011;9505;50.882;5.350;2023-08-17T05:56:42;100.32;;;93.05;;
18752;SDS011;9505;50.882;5.350;2023-08-17T05:59:11;82.35;;;76.45;;
18752;SDS011;9505;50.882;5.350;2023-08-17T06:01:37;107.22;;;98.93;;
18752;SDS011;9505;50.882;5.350;2023-08-17T06:04:03;93.70;;;86.30;;
18752;SDS011;9505;50.882;5.350;2023-08-17T06:06:30;81.38;;;75.45;;
18752;SDS011;9505;50.882;5.350;2023-08-17T06:08:55;90.90;;;83.30;;
18752;SDS011;9505;50.882;5.350;2023-08-17T06:11:21;101.07;;;93.60;;
18752;SDS011;9505;50.882;5.350;2023-08-17T06:13:48;98.63;;;92.03;;
18752;SDS011;9505;50.882;5.350;2023-08-17T06:16:13;121.47;;;112.20;;
18752;SDS011;9505;50.882;5.350;2023-08-17T06:18:39;132.25;;;123.50;;
18752;SDS011;9505;50.882;5.350;2023-08-17T06:21:05;177.55;;;165.10;;
18752;SDS011;9505;50.882;5.350;2023-08-17T06:23:31;177.50;;;165.50;;
18752;SDS011;9505;50.882;5.350;2023-08-17T06:25:57;185.32;;;173.65;;
18752;SDS011;9505;50.882;5.350;2023-08-17T06:28:24;217.02;;;203.32;;
18752;SDS011;9505;50.882;5.350;2023-08-17T06:30:56;222.38;;;207.77;;
18752;SDS011;9505;50.882;5.350;2023-08-17T06:33:22;258.95;;;241.98;;
18752;SDS011;9505;50.882;5.350;2023-08-17T06:35:50;274.40;;;257.95;;
18752;SDS011;9505;50.882;5.350;2023-08-17T06:38:16;216.80;;;202.18;;
18752;SDS011;9505;50.882;5.350;2023-08-17T06:40:42;209.70;;;196.00;;
18752;SDS011;9505;50.882;5.350;2023-08-17T06:43:07;235.40;;;219.88;;
18752;SDS011;9505;50.882;5.350;2023-08-17T06:45:34;207.50;;;194.00;;
18752;SDS011;9505;50.882;5.350;2023-08-17T06:48:00;157.88;;;146.63;;
18752;SDS011;9505;50.882;5.350;2023-08-17T06:50:26;126.57;;;116.28;;
18752;SDS011;9505;50.882;5.350;2023-08-17T06:52:53;94.97;;;87.13;;
18752;SDS011;9505;50.882;5.350;2023-08-17T06:55:19;80.03;;;73.07;;
18752;SDS011;9505;50.882;5.350;2023-08-17T06:57:45;68.20;;;54.20;;
18752;SDS011;9505;50.882;5.350;2023-08-17T07:00:11;49.25;;;44.33;;
18752;SDS011;9505;50.882;5.350;2023-08-17T07:02:37;58.10;;;52.80;;
18752;SDS011;9505;50.882;5.350;2023-08-17T07:05:03;72.47;;;53.78;;
18752;SDS011;9505;50.882;5.350;2023-08-17T07:07:29;58.67;;;53.35;;
18752;SDS011;9505;50.882;5.350;2023-08-17T07:09:57;59.10;;;53.17;;
18752;SDS011;9505;50.882;5.350;2023-08-17T07:12:22;69.95;;;62.97;;
18752;SDS011;9505;50.882;5.350;2023-08-17T07:14:51;69.75;;;63.63;;
18752;SDS011;9505;50.882;5.350;2023-08-17T07:17:19;75.10;;;67.75;;
18752;SDS011;9505;50.882;5.350;2023-08-17T07:19:45;65.15;;;59.20;;
18752;SDS011;9505;50.882;5.350;2023-08-17T07:22:11;76.38;;;67.80;;
18752;SDS011;9505;50.882;5.350;2023-08-17T07:24:36;53.42;;;48.08;;
18752;SDS011;9505;50.882;5.350;2023-08-17T07:27:02;56.63;;;47.25;;
18752;SDS011;9505;50.882;5.350;2023-08-17T07:29:28;51.80;;;45.67;;
18752;SDS011;9505;50.882;5.350;2023-08-17T07:31:53;56.55;;;51.03;;
18752;SDS011;9505;50.882;5.350;2023-08-17T07:34:19;61.38;;;51.20;;
18752;SDS011;9505;50.882;5.350;2023-08-17T07:36:45;54.75;;;45.15;;
18752;SDS011;9505;50.882;5.350;2023-08-17T07:39:11;70.25;;;62.92;;
18752;SDS011;9505;50.882;5.350;2023-08-17T07:41:36;68.05;;;61.35;;
18752;SDS011;9505;50.882;5.350;2023-08-17T07:44:02;61.35;;;52.90;;
18752;SDS011;9505;50.882;5.350;2023-08-17T07:46:28;59.20;;;52.90;;
18752;SDS011;9505;50.882;5.350;2023-08-17T07:48:54;59.95;;;51.92;;
18752;SDS011;9505;50.882;5.350;2023-08-17T07:51:19;75.50;;;62.92;;
18752;SDS011;9505;50.882;5.350;2023-08-17T07:53:45;67.00;;;59.72;;
18752;SDS011;9505;50.882;5.350;2023-08-17T07:56:10;65.13;;;55.65;;
18752;SDS011;9505;50.882;5.350;2023-08-17T07:58:36;68.95;;;62.25;;
18752;SDS011;9505;50.882;5.350;2023-08-17T08:01:02;65.72;;;58.08;;
18752;SDS011;9505;50.882;5.350;2023-08-17T08:03:27;62.47;;;46.80;;
18752;SDS011;9505;50.882;5.350;2023-08-17T08:05:53;57.70;;;50.75;;
18752;SDS011;9505;50.882;5.350;2023-08-17T08:08:19;70.75;;;53.92;;
18752;SDS011;9505;50.882;5.350;2023-08-17T08:10:45;59.47;;;52.20;;
18752;SDS011;9505;50.882;5.350;2023-08-17T08:13:11;58.60;;;52.47;;
18752;SDS011;9505;50.882;5.350;2023-08-17T08:15:36;71.53;;;64.43;;
18752;SDS011;9505;50.882;5.350;2023-08-17T08:18:02;87.00;;;78.60;;
18752;SDS011;9505;50.882;5.350;2023-08-17T08:20:28;62.05;;;55.45;;
18752;SDS011;9505;50.882;5.350;2023-08-17T08:22:54;75.35;;;67.68;;
18752;SDS011;9505;50.882;5.350;2023-08-17T08:25:19;69.28;;;61.45;;
18752;SDS011;9505;50.882;5.350;2023-08-17T08:27:45;259.27;;;240.82;;
18752;SDS011;9505;50.882;5.350;2023-08-17T08:30:11;273.08;;;254.02;;
18752;SDS011;9505;50.882;5.350;2023-08-17T08:32:36;182.98;;;169.38;;
18752;SDS011;9505;50.882;5.350;2023-08-17T08:35:02;141.10;;;129.68;;
18752;SDS011;9505;50.882;5.350;2023-08-17T08:37:28;103.15;;;93.65;;
18752;SDS011;9505;50.882;5.350;2023-08-17T08:39:54;76.70;;;69.30;;
18752;SDS011;9505;50.882;5.350;2023-08-17T08:42:20;83.32;;;75.28;;
18752;SDS011;9505;50.882;5.350;2023-08-17T08:44:47;67.20;;;60.40;;
18752;SDS011;9505;50.882;5.350;2023-08-17T08:47:14;82.95;;;75.03;;
18752;SDS011;9505;50.882;5.350;2023-08-17T08:49:44;97.22;;;88.38;;
18752;SDS011;9505;50.882;5.350;2023-08-17T08:52:34;126.15;;;114.57;;
18752;SDS011;9505;50.882;5.350;2023-08-17T08:55:23;146.43;;;135.65;;
18752;SDS011;9505;50.882;5.350;2023-08-17T08:57:48;208.90;;;194.50;;
18752;SDS011;9505;50.882;5.350;2023-08-17T09:00:15;210.07;;;195.27;;
18752;SDS011;9505;50.882;5.350;2023-08-17T09:02:42;172.65;;;160.48;;
18752;SDS011;9505;50.882;5.350;2023-08-17T09:05:10;138.15;;;127.35;;
18752;SDS011;9505;50.882;5.350;2023-08-17T09:07:36;102.00;;;93.47;;
18752;SDS011;9505;50.882;5.350;2023-08-17T09:10:03;90.85;;;82.88;;
18752;SDS011;9505;50.882;5.350;2023-08-17T09:12:29;60.03;;;53.75;;
18752;SDS011;9505;50.882;5.350;2023-08-17T09:14:55;50.67;;;44.10;;
18752;SDS011;9505;50.882;5.350;2023-08-17T09:17:25;53.65;;;44.92;;
18752;SDS011;9505;50.882;5.350;2023-08-17T09:19:51;53.28;;;37.75;;
18752;SDS011;9505;50.882;5.350;2023-08-17T09:22:24;43.17;;;38.17;;
18752;SDS011;9505;50.882;5.350;2023-08-17T09:24:51;58.28;;;40.88;;
18752;SDS011;9505;50.882;5.350;2023-08-17T09:27:17;54.22;;;35.88;;
18752;SDS011;9505;50.882;5.350;2023-08-17T09:29:43;42.22;;;37.60;;
18752;SDS011;9505;50.882;5.350;2023-08-17T09:32:10;52.95;;;38.53;;
18752;SDS011;9505;50.882;5.350;2023-08-17T09:34:36;60.65;;;38.05;;
18752;SDS011;9505;50.882;5.350;2023-08-17T09:37:05;44.92;;;40.17;;
18752;SDS011;9505;50.882;5.350;2023-08-17T09:39:33;52.60;;;37.03;;
18752;SDS011;9505;50.882;5.350;2023-08-17T09:41:59;49.95;;;36.63;;
18752;SDS011;9505;50.882;5.350;2023-08-17T09:44:25;56.55;;;37.17;;
18752;SDS011;9505;50.882;5.350;2023-08-17T09:46:51;47.88;;;35.90;;
18752;SDS011;9505;50.882;5.350;2023-08-17T09:49:22;43.50;;;36.40;;
18752;SDS011;9505;50.882;5.350;2023-08-17T09:51:49;50.40;;;37.55;;
18752;SDS011;9505;50.882;5.350;2023-08-17T09:54:21;44.00;;;34.13;;
18752;SDS011;9505;50.882;5.350;2023-08-17T09:56:57;36.85;;;29.00;;
18752;SDS011;9505;50.882;5.350;2023-08-17T09:59:23;42.58;;;30.52;;
18752;SDS011;9505;50.882;5.350;2023-08-17T10:01:50;40.00;;;29.40;;
18752;SDS011;9505;50.882;5.350;2023-08-17T10:04:22;43.05;;;30.10;;
18752;SDS011;9505;50.882;5.350;2023-08-17T10:06:51;36.42;;;26.83;;
18752;SDS011;9505;50.882;5.350;2023-08-17T10:09:22;37.45;;;24.75;;
18752;SDS011;9505;50.882;5.350;2023-08-17T10:11:53;37.38;;;21.98;;
18752;SDS011;9505;50.882;5.350;2023-08-17T10:14:23;34.08;;;22.33;;
18752;SDS011;9505;50.882;5.350;2023-08-17T10:17:00;32.92;;;23.45;;
18752;SDS011;9505;50.882;5.350;2023-08-17T10:22:18;33.33;;;25.33;;
18752;SDS011;9505;50.882;5.350;2023-08-17T10:25:08;33.05;;;27.10;;
18752;SDS011;9505;50.882;5.350;2023-08-17T10:27:36;42.13;;;28.30;;
18752;SDS011;9505;50.882;5.350;2023-08-17T10:30:02;50.03;;;44.28;;
18752;SDS011;9505;50.882;5.350;2023-08-17T10:32:29;35.88;;;32.00;;
18752;SDS011;9505;50.882;5.350;2023-08-17T10:34:55;43.78;;;39.10;;
18752;SDS011;9505;50.882;5.350;2023-08-17T10:37:22;40.47;;;31.50;;
18752;SDS011;9505;50.882;5.350;2023-08-17T10:39:49;37.70;;;26.83;;
18752;SDS011;9505;50.882;5.350;2023-08-17T10:42:29;43.17;;;28.67;;
18752;SDS011;9505;50.882;5.350;2023-08-17T10:44:57;45.47;;;31.52;;
18752;SDS011;9505;50.882;5.350;2023-08-17T10:47:26;48.95;;;36.20;;
18752;SDS011;9505;50.882;5.350;2023-08-17T10:49:57;49.45;;;33.88;;
18752;SDS011;9505;50.882;5.350;2023-08-17T10:52:25;44.33;;;31.63;;
18752;SDS011;9505;50.882;5.350;2023-08-17T10:54:55;46.05;;;31.75;;
18752;SDS011;9505;50.882;5.350;2023-08-17T10:57:27;50.25;;;34.08;;
18752;SDS011;9505;50.882;5.350;2023-08-17T11:02:39;51.13;;;31.55;;
18752;SDS011;9505;50.882;5.350;2023-08-17T11:05:05;49.28;;;32.25;;
18752;SDS011;9505;50.882;5.350;2023-08-17T11:07:38;47.03;;;30.90;;
18752;SDS011;9505;50.882;5.350;2023-08-17T11:10:11;41.22;;;29.40;;
18752;SDS011;9505;50.882;5.350;2023-08-17T11:12:52;38.10;;;27.60;;
18752;SDS011;9505;50.882;5.350;2023-08-17T11:15:22;46.38;;;31.75;;
18752;SDS011;9505;50.882;5.350;2023-08-17T11:17:48;44.55;;;32.08;;
18752;SDS011;9505;50.882;5.350;2023-08-17T11:20:14;45.88;;;33.28;;
18752;SDS011;9505;50.882;5.350;2023-08-17T11:22:40;47.25;;;29.20;;
18752;SDS011;9505;50.882;5.350;2023-08-17T11:25:06;46.45;;;28.33;;
18752;SDS011;9505;50.882;5.350;2023-08-17T11:27:32;41.33;;;27.00;;
18752;SDS011;9505;50.882;5.350;2023-08-17T11:29:58;44.50;;;27.88;;
18752;SDS011;9505;50.882;5.350;2023-08-17T11:32:24;39.35;;;27.33;;
18752;SDS011;9505;50.882;5.350;2023-08-17T11:34:50;42.72;;;26.38;;
18752;SDS011;9505;50.882;5.350;2023-08-17T11:37:16;35.25;;;24.30;;
18752;SDS011;9505;50.882;5.350;2023-08-17T11:39:42;47.75;;;25.05;;
18752;SDS011;9505;50.882;5.350;2023-08-17T11:42:07;38.13;;;23.50;;
18752;SDS011;9505;50.882;5.350;2023-08-17T11:44:33;45.67;;;26.80;;
18752;SDS011;9505;50.882;5.350;2023-08-17T11:46:59;42.63;;;26.05;;
18752;SDS011;9505;50.882;5.350;2023-08-17T11:49:25;38.03;;;25.27;;
18752;SDS011;9505;50.882;5.350;2023-08-17T11:51:53;37.10;;;27.27;;
18752;SDS011;9505;50.882;5.350;2023-08-17T11:54:19;50.78;;;28.67;;
18752;SDS011;9505;50.882;5.350;2023-08-17T11:56:46;43.47;;;30.20;;
18752;SDS011;9505;50.882;5.350;2023-08-17T11:59:13;41.45;;;30.00;;
18752;SDS011;9505;50.882;5.350;2023-08-17T12:01:44;38.42;;;28.70;;
18752;SDS011;9505;50.882;5.350;2023-08-17T12:04:10;46.72;;;31.20;;
18752;SDS011;9505;50.882;5.350;2023-08-17T12:06:42;50.28;;;31.98;;
18752;SDS011;9505;50.882;5.350;2023-08-17T12:09:10;44.38;;;29.23;;
18752;SDS011;9505;50.882;5.350;2023-08-17T12:11:38;48.05;;;30.67;;
18752;SDS011;9505;50.882;5.350;2023-08-17T12:14:11;50.13;;;29.95;;
18752;SDS011;9505;50.882;5.350;2023-08-17T12:16:46;56.55;;;32.78;;
18752;SDS011;9505;50.882;5.350;2023-08-17T12:19:13;46.17;;;38.08;;
18752;SDS011;9505;50.882;5.350;2023-08-17T12:21:40;48.90;;;35.33;;
18752;SDS011;9505;50.882;5.350;2023-08-17T12:24:08;48.20;;;34.00;;
18752;SDS011;9505;50.882;5.350;2023-08-17T12:26:34;44.45;;;33.60;;
18752;SDS011;9505;50.882;5.350;2023-08-17T12:29:00;52.35;;;33.38;;
18752;SDS011;9505;50.882;5.350;2023-08-17T12:31:29;50.30;;;32.00;;
18752;SDS011;9505;50.882;5.350;2023-08-17T12:33:55;45.00;;;29.13;;
18752;SDS011;9505;50.882;5.350;2023-08-17T12:36:20;36.03;;;26.98;;
18752;SDS011;9505;50.882;5.350;2023-08-17T12:38:46;40.30;;;28.80;;
18752;SDS011;9505;50.882;5.350;2023-08-17T12:41:13;49.40;;;28.38;;
18752;SDS011;9505;50.882;5.350;2023-08-17T12:43:38;51.65;;;30.80;;
18752;SDS011;9505;50.882;5.350;2023-08-17T12:46:04;45.08;;;29.13;;
18752;SDS011;9505;50.882;5.350;2023-08-17T12:48:30;44.85;;;30.85;;
18752;SDS011;9505;50.882;5.350;2023-08-17T12:50:55;57.63;;;36.85;;
18752;SDS011;9505;50.882;5.350;2023-08-17T12:53:21;54.60;;;37.67;;
18752;SDS011;9505;50.882;5.350;2023-08-17T12:55:47;42.22;;;33.92;;
18752;SDS011;9505;50.882;5.350;2023-08-17T12:58:14;68.78;;;61.72;;
18752;SDS011;9505;50.882;5.350;2023-08-17T13:00:39;64.63;;;58.42;;
18752;SDS011;9505;50.882;5.350;2023-08-17T13:03:05;67.43;;;60.92;;
18752;SDS011;9505;50.882;5.350;2023-08-17T13:05:31;62.65;;;56.03;;
18752;SDS011;9505;50.882;5.350;2023-08-17T13:07:57;60.47;;;54.40;;
18752;SDS011;9505;50.882;5.350;2023-08-17T13:10:23;77.15;;;65.53;;
18752;SDS011;9505;50.882;5.350;2023-08-17T13:12:48;71.80;;;63.80;;
18752;SDS011;9505;50.882;5.350;2023-08-17T13:15:18;71.38;;;59.28;;
18752;SDS011;9505;50.882;5.350;2023-08-17T13:17:44;65.25;;;58.38;;
18752;SDS011;9505;50.882;5.350;2023-08-17T13:20:09;63.92;;;57.75;;
18752;SDS011;9505;50.882;5.350;2023-08-17T13:22:35;59.47;;;52.97;;
18752;SDS011;9505;50.882;5.350;2023-08-17T13:25:01;61.00;;;47.80;;
18752;SDS011;9505;50.882;5.350;2023-08-17T13:27:27;55.30;;;46.70;;
18752;SDS011;9505;50.882;5.350;2023-08-17T13:29:52;64.38;;;47.17;;
18752;SDS011;9505;50.882;5.350;2023-08-17T13:32:18;60.90;;;49.92;;
18752;SDS011;9505;50.882;5.350;2023-08-17T13:34:44;52.97;;;45.40;;
18752;SDS011;9505;50.882;5.350;2023-08-17T13:37:09;63.97;;;54.13;;
18752;SDS011;9505;50.882;5.350;2023-08-17T13:39:35;95.32;;;86.93;;
18752;SDS011;9505;50.882;5.350;2023-08-17T13:42:00;128.50;;;116.32;;
18752;SDS011;9505;50.882;5.350;2023-08-17T13:44:26;139.65;;;128.52;;
18752;SDS011;9505;50.882;5.350;2023-08-17T13:46:52;139.50;;;128.10;;
18752;SDS011;9505;50.882;5.350;2023-08-17T13:49:17;96.20;;;86.72;;
18752;SDS011;9505;50.882;5.350;2023-08-17T13:51:43;122.85;;;113.50;;
18752;SDS011;9505;50.882;5.350;2023-08-17T13:54:09;95.75;;;86.78;;
18752;SDS011;9505;50.882;5.350;2023-08-17T13:56:34;110.38;;;99.90;;
18752;SDS011;9505;50.882;5.350;2023-08-17T13:59:00;130.45;;;120.80;;
18752;SDS011;9505;50.882;5.350;2023-08-17T14:01:27;103.50;;;94.53;;
18752;SDS011;9505;50.882;5.350;2023-08-17T14:03:53;42.30;;;28.95;;
18752;SDS011;9505;50.882;5.350;2023-08-17T14:06:18;45.70;;;29.65;;
18752;SDS011;9505;50.882;5.350;2023-08-17T14:08:44;44.95;;;33.95;;
18752;SDS011;9505;50.882;5.350;2023-08-17T14:11:10;47.80;;;29.02;;
18752;SDS011;9505;50.882;5.350;2023-08-17T14:13:35;44.40;;;34.08;;
18752;SDS011;9505;50.882;5.350;2023-08-17T14:16:02;53.60;;;44.03;;
18752;SDS011;9505;50.882;5.350;2023-08-17T14:18:27;61.85;;;56.17;;
18752;SDS011;9505;50.882;5.350;2023-08-17T14:20:53;65.40;;;59.40;;
18752;SDS011;9505;50.882;5.350;2023-08-17T14:23:19;64.18;;;49.08;;
18752;SDS011;9505;50.882;5.350;2023-08-17T14:25:44;48.88;;;42.67;;
18752;SDS011;9505;50.882;5.350;2023-08-17T14:28:10;48.10;;;40.80;;